KDWX

Dixon Airport

Dixon, Wyoming, USA
METAR KDWX 162355Z AUTO 05005KT 10SM CLR M02/M07 A2980 RMK AO2 T10221073 10175 21211
Observed Flight Rules
Dec-16 @ 23:55 UTC (16 minutes ago) Visual Flight Rules
Wind Visibility Clouds
50° at 5 knots 10 miles
  • Clear skies
Temperatures Readings
Current -2°C / 28°F
Dewpoint -7°C / 19°F
Humidity 69%
Altimeter 29.8" Hg
Pressure 1009 hPa
Elevation 1996
METAR KDWX 162355Z AUTO 05005KT 10SM CLR M02/M07 A2980 RMK AO2 T10221073 10175 21211
Observed Flight Rules
Dec-16 @ 23:55 UTC
(16 minutes ago)
VFR
Wind Visibility
50° at 5 knots 10 miles
Clouds
  • Clear skies
Temperature Dewpoint
-2°C / 28°F -7°C / 19°F
Humidity Altimeter Pressure
69% 29.8" Hg 1009 hPa